sensor_id;sensor_type;location;lat;lon;timestamp;P1;durP1;ratioP1;P2;durP2;ratioP2
37485;SDS011;23341;50.296;18.960;2023-10-19T00:00:40;57.85;;;28.38;;
37485;SDS011;23341;50.296;18.960;2023-10-19T00:06:08;55.83;;;26.20;;
37485;SDS011;23341;50.296;18.960;2023-10-19T00:11:13;55.38;;;26.95;;
37485;SDS011;23341;50.296;18.960;2023-10-19T00:16:24;63.53;;;28.67;;
37485;SDS011;23341;50.296;18.960;2023-10-19T00:21:33;60.58;;;29.50;;
37485;SDS011;23341;50.296;18.960;2023-10-19T00:26:52;57.83;;;28.85;;
37485;SDS011;23341;50.296;18.960;2023-10-19T00:31:58;55.20;;;30.40;;
37485;SDS011;23341;50.296;18.960;2023-10-19T00:37:06;55.03;;;27.42;;
37485;SDS011;23341;50.296;18.960;2023-10-19T00:42:13;64.43;;;28.13;;
37485;SDS011;23341;50.296;18.960;2023-10-19T00:47:23;52.63;;;28.83;;
37485;SDS011;23341;50.296;18.960;2023-10-19T00:52:34;58.25;;;30.00;;
37485;SDS011;23341;50.296;18.960;2023-10-19T00:57:46;53.70;;;28.25;;
37485;SDS011;23341;50.296;18.960;2023-10-19T01:02:52;57.67;;;30.45;;
37485;SDS011;23341;50.296;18.960;2023-10-19T01:08:05;52.83;;;29.77;;
37485;SDS011;23341;50.296;18.960;2023-10-19T01:13:22;51.00;;;28.50;;
37485;SDS011;23341;50.296;18.960;2023-10-19T01:18:30;52.22;;;27.65;;
37485;SDS011;23341;50.296;18.960;2023-10-19T01:23:36;63.45;;;30.05;;
37485;SDS011;23341;50.296;18.960;2023-10-19T01:28:41;53.25;;;28.30;;
37485;SDS011;23341;50.296;18.960;2023-10-19T01:33:46;73.18;;;38.35;;
37485;SDS011;23341;50.296;18.960;2023-10-19T01:38:52;66.22;;;28.75;;
37485;SDS011;23341;50.296;18.960;2023-10-19T01:43:58;48.38;;;26.92;;
37485;SDS011;23341;50.296;18.960;2023-10-19T01:54:13;48.22;;;26.05;;
37485;SDS011;23341;50.296;18.960;2023-10-19T01:59:17;51.13;;;26.38;;
37485;SDS011;23341;50.296;18.960;2023-10-19T02:04:21;52.15;;;28.42;;
37485;SDS011;23341;50.296;18.960;2023-10-19T02:09:27;48.30;;;27.38;;
37485;SDS011;23341;50.296;18.960;2023-10-19T02:14:35;50.15;;;28.48;;
37485;SDS011;23341;50.296;18.960;2023-10-19T02:19:39;55.53;;;29.70;;
37485;SDS011;23341;50.296;18.960;2023-10-19T02:24:45;46.35;;;27.65;;
37485;SDS011;23341;50.296;18.960;2023-10-19T02:29:49;52.97;;;27.77;;
37485;SDS011;23341;50.296;18.960;2023-10-19T02:34:54;47.80;;;26.77;;
37485;SDS011;23341;50.296;18.960;2023-10-19T02:40:01;53.38;;;28.50;;
37485;SDS011;23341;50.296;18.960;2023-10-19T02:45:15;68.18;;;33.22;;
37485;SDS011;23341;50.296;18.960;2023-10-19T02:50:20;47.20;;;27.13;;
37485;SDS011;23341;50.296;18.960;2023-10-19T02:55:27;50.60;;;26.63;;
37485;SDS011;23341;50.296;18.960;2023-10-19T03:00:31;46.10;;;25.83;;
37485;SDS011;23341;50.296;18.960;2023-10-19T03:05:37;46.38;;;26.80;;
37485;SDS011;23341;50.296;18.960;2023-10-19T03:10:46;53.22;;;26.30;;
37485;SDS011;23341;50.296;18.960;2023-10-19T03:16:06;52.50;;;28.08;;
37485;SDS011;23341;50.296;18.960;2023-10-19T03:21:11;47.88;;;25.90;;
37485;SDS011;23341;50.296;18.960;2023-10-19T03:26:17;47.00;;;26.38;;
37485;SDS011;23341;50.296;18.960;2023-10-19T03:31:25;49.23;;;26.00;;
37485;SDS011;23341;50.296;18.960;2023-10-19T03:36:29;44.72;;;25.58;;
37485;SDS011;23341;50.296;18.960;2023-10-19T03:41:37;51.15;;;26.17;;
37485;SDS011;23341;50.296;18.960;2023-10-19T03:46:44;47.57;;;26.53;;
37485;SDS011;23341;50.296;18.960;2023-10-19T03:52:00;47.33;;;25.67;;
37485;SDS011;23341;50.296;18.960;2023-10-19T03:57:25;41.58;;;23.48;;
37485;SDS011;23341;50.296;18.960;2023-10-19T04:02:32;39.07;;;23.60;;
37485;SDS011;23341;50.296;18.960;2023-10-19T04:07:40;42.45;;;23.02;;
37485;SDS011;23341;50.296;18.960;2023-10-19T04:12:46;39.97;;;22.20;;
37485;SDS011;23341;50.296;18.960;2023-10-19T04:17:51;39.72;;;22.77;;
37485;SDS011;23341;50.296;18.960;2023-10-19T04:22:55;38.13;;;22.75;;
37485;SDS011;23341;50.296;18.960;2023-10-19T04:28:02;39.15;;;24.08;;
37485;SDS011;23341;50.296;18.960;2023-10-19T04:33:08;37.55;;;22.70;;
37485;SDS011;23341;50.296;18.960;2023-10-19T04:38:13;51.70;;;25.35;;
37485;SDS011;23341;50.296;18.960;2023-10-19T04:43:21;49.10;;;25.77;;
37485;SDS011;23341;50.296;18.960;2023-10-19T04:48:26;42.92;;;24.30;;
37485;SDS011;23341;50.296;18.960;2023-10-19T04:53:33;44.53;;;23.77;;
37485;SDS011;23341;50.296;18.960;2023-10-19T04:58:39;42.88;;;25.05;;
37485;SDS011;23341;50.296;18.960;2023-10-19T05:03:43;47.28;;;24.95;;
37485;SDS011;23341;50.296;18.960;2023-10-19T05:08:49;43.42;;;23.13;;
37485;SDS011;23341;50.296;18.960;2023-10-19T05:13:56;45.58;;;25.30;;
37485;SDS011;23341;50.296;18.960;2023-10-19T05:19:00;68.65;;;38.05;;
37485;SDS011;23341;50.296;18.960;2023-10-19T05:24:07;39.20;;;22.75;;
37485;SDS011;23341;50.296;18.960;2023-10-19T05:29:13;42.95;;;24.25;;
37485;SDS011;23341;50.296;18.960;2023-10-19T05:34:18;58.78;;;29.73;;
37485;SDS011;23341;50.296;18.960;2023-10-19T05:39:22;49.17;;;26.35;;
37485;SDS011;23341;50.296;18.960;2023-10-19T05:44:31;34.03;;;21.15;;
37485;SDS011;23341;50.296;18.960;2023-10-19T05:49:36;35.47;;;21.00;;
37485;SDS011;23341;50.296;18.960;2023-10-19T05:54:40;39.45;;;20.13;;
37485;SDS011;23341;50.296;18.960;2023-10-19T05:59:46;37.78;;;20.73;;
37485;SDS011;23341;50.296;18.960;2023-10-19T06:04:50;33.45;;;21.45;;
37485;SDS011;23341;50.296;18.960;2023-10-19T06:09:54;499.73;;;134.70;;
37485;SDS011;23341;50.296;18.960;2023-10-19T06:15:00;61.15;;;29.65;;
37485;SDS011;23341;50.296;18.960;2023-10-19T06:20:06;139.85;;;45.70;;
37485;SDS011;23341;50.296;18.960;2023-10-19T06:25:22;49.75;;;27.17;;
37485;SDS011;23341;50.296;18.960;2023-10-19T06:30:29;43.25;;;23.33;;
37485;SDS011;23341;50.296;18.960;2023-10-19T06:35:34;37.00;;;21.38;;
37485;SDS011;23341;50.296;18.960;2023-10-19T06:40:39;36.67;;;19.27;;
37485;SDS011;23341;50.296;18.960;2023-10-19T06:45:46;33.20;;;19.75;;
37485;SDS011;23341;50.296;18.960;2023-10-19T06:50:50;49.50;;;23.27;;
37485;SDS011;23341;50.296;18.960;2023-10-19T06:55:54;42.08;;;21.25;;
37485;SDS011;23341;50.296;18.960;2023-10-19T07:01:00;49.17;;;21.33;;
37485;SDS011;23341;50.296;18.960;2023-10-19T07:06:08;41.10;;;20.33;;
37485;SDS011;23341;50.296;18.960;2023-10-19T07:11:16;60.78;;;24.85;;
37485;SDS011;23341;50.296;18.960;2023-10-19T07:16:22;60.97;;;23.85;;
37485;SDS011;23341;50.296;18.960;2023-10-19T07:21:26;117.45;;;42.53;;
37485;SDS011;23341;50.296;18.960;2023-10-19T07:26:34;62.45;;;27.27;;
37485;SDS011;23341;50.296;18.960;2023-10-19T07:31:46;87.80;;;32.85;;
37485;SDS011;23341;50.296;18.960;2023-10-19T07:36:51;62.35;;;24.58;;
37485;SDS011;23341;50.296;18.960;2023-10-19T07:41:56;38.03;;;20.70;;
37485;SDS011;23341;50.296;18.960;2023-10-19T07:47:02;79.13;;;33.30;;
37485;SDS011;23341;50.296;18.960;2023-10-19T07:52:07;54.72;;;24.17;;
37485;SDS011;23341;50.296;18.960;2023-10-19T07:57:13;30.23;;;16.20;;
37485;SDS011;23341;50.296;18.960;2023-10-19T08:02:19;41.60;;;17.60;;
37485;SDS011;23341;50.296;18.960;2023-10-19T08:07:24;29.63;;;14.02;;
37485;SDS011;23341;50.296;18.960;2023-10-19T08:12:30;28.00;;;14.57;;
37485;SDS011;23341;50.296;18.960;2023-10-19T08:17:36;30.02;;;16.25;;
37485;SDS011;23341;50.296;18.960;2023-10-19T08:22:42;35.90;;;16.70;;
37485;SDS011;23341;50.296;18.960;2023-10-19T08:27:49;31.10;;;17.13;;
37485;SDS011;23341;50.296;18.960;2023-10-19T08:32:55;30.83;;;16.35;;
37485;SDS011;23341;50.296;18.960;2023-10-19T08:38:01;40.58;;;17.77;;
37485;SDS011;23341;50.296;18.960;2023-10-19T08:43:12;32.05;;;17.60;;
37485;SDS011;23341;50.296;18.960;2023-10-19T08:48:21;29.55;;;16.48;;
37485;SDS011;23341;50.296;18.960;2023-10-19T08:53:26;29.88;;;17.70;;
37485;SDS011;23341;50.296;18.960;2023-10-19T08:58:33;29.42;;;15.85;;
37485;SDS011;23341;50.296;18.960;2023-10-19T09:03:39;28.20;;;15.82;;
37485;SDS011;23341;50.296;18.960;2023-10-19T09:08:46;30.27;;;16.92;;
37485;SDS011;23341;50.296;18.960;2023-10-19T09:13:51;33.72;;;18.40;;
37485;SDS011;23341;50.296;18.960;2023-10-19T09:18:59;37.60;;;18.15;;
37485;SDS011;23341;50.296;18.960;2023-10-19T09:24:04;38.83;;;19.55;;
37485;SDS011;23341;50.296;18.960;2023-10-19T09:29:08;44.00;;;21.23;;
37485;SDS011;23341;50.296;18.960;2023-10-19T09:34:22;40.42;;;19.45;;
37485;SDS011;23341;50.296;18.960;2023-10-19T09:39:34;34.55;;;20.45;;
37485;SDS011;23341;50.296;18.960;2023-10-19T09:44:39;40.83;;;22.00;;
37485;SDS011;23341;50.296;18.960;2023-10-19T09:49:47;62.33;;;33.88;;
37485;SDS011;23341;50.296;18.960;2023-10-19T09:54:54;39.92;;;22.67;;
37485;SDS011;23341;50.296;18.960;2023-10-19T10:00:05;48.65;;;23.60;;
37485;SDS011;23341;50.296;18.960;2023-10-19T10:10:51;214.73;;;97.90;;
37485;SDS011;23341;50.296;18.960;2023-10-19T10:15:55;49.72;;;25.15;;
37485;SDS011;23341;50.296;18.960;2023-10-19T10:21:10;44.38;;;25.20;;
37485;SDS011;23341;50.296;18.960;2023-10-19T10:26:15;56.58;;;27.58;;
37485;SDS011;23341;50.296;18.960;2023-10-19T10:31:20;60.25;;;29.13;;
37485;SDS011;23341;50.296;18.960;2023-10-19T10:36:27;42.65;;;24.70;;
37485;SDS011;23341;50.296;18.960;2023-10-19T10:47:10;42.65;;;20.02;;
37485;SDS011;23341;50.296;18.960;2023-10-19T10:52:24;37.40;;;20.35;;
37485;SDS011;23341;50.296;18.960;2023-10-19T10:57:32;36.15;;;20.90;;
37485;SDS011;23341;50.296;18.960;2023-10-19T11:02:37;31.17;;;17.10;;
37485;SDS011;23341;50.296;18.960;2023-10-19T11:13:12;40.08;;;22.95;;
37485;SDS011;23341;50.296;18.960;2023-10-19T11:18:30;35.42;;;21.05;;
37485;SDS011;23341;50.296;18.960;2023-10-19T11:23:38;41.20;;;25.52;;
37485;SDS011;23341;50.296;18.960;2023-10-19T11:28:43;36.70;;;20.65;;
37485;SDS011;23341;50.296;18.960;2023-10-19T11:33:53;38.60;;;23.17;;
37485;SDS011;23341;50.296;18.960;2023-10-19T11:39:01;32.45;;;18.55;;
37485;SDS011;23341;50.296;18.960;2023-10-19T11:44:06;31.85;;;18.05;;
37485;SDS011;23341;50.296;18.960;2023-10-19T11:49:12;32.03;;;19.50;;
37485;SDS011;23341;50.296;18.960;2023-10-19T11:54:17;29.88;;;20.50;;
37485;SDS011;23341;50.296;18.960;2023-10-19T11:59:21;42.03;;;22.98;;
37485;SDS011;23341;50.296;18.960;2023-10-19T12:04:26;30.15;;;19.95;;
37485;SDS011;23341;50.296;18.960;2023-10-19T12:09:31;32.72;;;21.10;;
37485;SDS011;23341;50.296;18.960;2023-10-19T12:14:36;29.95;;;19.30;;
37485;SDS011;23341;50.296;18.960;2023-10-19T12:19:41;26.17;;;18.70;;
37485;SDS011;23341;50.296;18.960;2023-10-19T12:24:47;29.35;;;20.35;;
37485;SDS011;23341;50.296;18.960;2023-10-19T12:29:51;34.00;;;23.50;;
37485;SDS011;23341;50.296;18.960;2023-10-19T12:34:56;38.10;;;24.08;;
37485;SDS011;23341;50.296;18.960;2023-10-19T12:40:02;38.25;;;25.85;;
37485;SDS011;23341;50.296;18.960;2023-10-19T12:45:29;42.03;;;27.70;;
37485;SDS011;23341;50.296;18.960;2023-10-19T12:50:39;51.42;;;29.85;;
37485;SDS011;23341;50.296;18.960;2023-10-19T12:55:45;56.15;;;34.97;;
37485;SDS011;23341;50.296;18.960;2023-10-19T13:00:49;62.45;;;39.08;;
37485;SDS011;23341;50.296;18.960;2023-10-19T13:05:54;55.67;;;35.38;;
37485;SDS011;23341;50.296;18.960;2023-10-19T13:11:01;237.15;;;122.38;;
37485;SDS011;23341;50.296;18.960;2023-10-19T13:16:18;82.78;;;53.33;;
37485;SDS011;23341;50.296;18.960;2023-10-19T13:21:23;77.53;;;50.92;;
37485;SDS011;23341;50.296;18.960;2023-10-19T13:26:31;130.82;;;70.45;;
37485;SDS011;23341;50.296;18.960;2023-10-19T13:31:36;86.28;;;44.83;;
37485;SDS011;23341;50.296;18.960;2023-10-19T13:36:42;68.30;;;40.45;;
37485;SDS011;23341;50.296;18.960;2023-10-19T13:41:50;75.18;;;45.92;;
37485;SDS011;23341;50.296;18.960;2023-10-19T13:46:54;79.55;;;46.42;;
37485;SDS011;23341;50.296;18.960;2023-10-19T13:51:59;55.92;;;35.35;;
37485;SDS011;23341;50.296;18.960;2023-10-19T13:57:05;45.38;;;30.23;;
37485;SDS011;23341;50.296;18.960;2023-10-19T14:02:09;69.47;;;43.08;;
37485;SDS011;23341;50.296;18.960;2023-10-19T14:07:13;62.63;;;38.47;;
37485;SDS011;23341;50.296;18.960;2023-10-19T14:12:20;105.22;;;59.85;;
37485;SDS011;23341;50.296;18.960;2023-10-19T14:17:25;60.35;;;38.55;;
37485;SDS011;23341;50.296;18.960;2023-10-19T14:22:29;71.32;;;44.42;;
37485;SDS011;23341;50.296;18.960;2023-10-19T14:27:38;52.08;;;33.15;;
37485;SDS011;23341;50.296;18.960;2023-10-19T14:32:46;46.00;;;28.00;;
37485;SDS011;23341;50.296;18.960;2023-10-19T14:37:51;41.67;;;28.38;;
37485;SDS011;23341;50.296;18.960;2023-10-19T14:42:59;34.75;;;23.38;;
37485;SDS011;23341;50.296;18.960;2023-10-19T14:48:04;45.60;;;27.15;;
37485;SDS011;23341;50.296;18.960;2023-10-19T14:53:12;54.35;;;36.63;;
37485;SDS011;23341;50.296;18.960;2023-10-19T14:58:17;73.95;;;38.30;;
37485;SDS011;23341;50.296;18.960;2023-10-19T15:03:22;43.25;;;27.38;;
37485;SDS011;23341;50.296;18.960;2023-10-19T15:08:27;120.63;;;53.22;;
37485;SDS011;23341;50.296;18.960;2023-10-19T15:13:35;68.50;;;34.17;;
37485;SDS011;23341;50.296;18.960;2023-10-19T15:18:40;99.97;;;42.78;;
37485;SDS011;23341;50.296;18.960;2023-10-19T15:23:44;96.95;;;43.78;;
37485;SDS011;23341;50.296;18.960;2023-10-19T15:28:50;164.35;;;69.40;;
37485;SDS011;23341;50.296;18.960;2023-10-19T15:33:55;68.25;;;40.47;;
37485;SDS011;23341;50.296;18.960;2023-10-19T15:38:59;125.10;;;56.40;;
37485;SDS011;23341;50.296;18.960;2023-10-19T15:44:05;66.97;;;35.80;;
37485;SDS011;23341;50.296;18.960;2023-10-19T15:49:09;68.75;;;38.60;;
37485;SDS011;23341;50.296;18.960;2023-10-19T15:54:18;58.50;;;34.33;;
37485;SDS011;23341;50.296;18.960;2023-10-19T15:59:24;192.90;;;80.05;;
37485;SDS011;23341;50.296;18.960;2023-10-19T16:04:28;61.78;;;37.47;;
37485;SDS011;23341;50.296;18.960;2023-10-19T16:09:33;132.75;;;62.70;;
37485;SDS011;23341;50.296;18.960;2023-10-19T16:14:38;172.73;;;81.63;;
37485;SDS011;23341;50.296;18.960;2023-10-19T16:19:43;105.78;;;54.97;;
37485;SDS011;23341;50.296;18.960;2023-10-19T16:24:47;74.43;;;43.78;;
37485;SDS011;23341;50.296;18.960;2023-10-19T16:29:53;85.30;;;47.42;;
37485;SDS011;23341;50.296;18.960;2023-10-19T16:34:57;75.88;;;47.42;;
37485;SDS011;23341;50.296;18.960;2023-10-19T16:40:02;90.50;;;62.00;;
37485;SDS011;23341;50.296;18.960;2023-10-19T16:45:09;122.53;;;76.38;;
37485;SDS011;23341;50.296;18.960;2023-10-19T16:50:14;140.98;;;84.80;;
37485;SDS011;23341;50.296;18.960;2023-10-19T16:55:24;141.63;;;88.17;;
37485;SDS011;23341;50.296;18.960;2023-10-19T17:00:30;147.88;;;87.40;;
37485;SDS011;23341;50.296;18.960;2023-10-19T17:05:35;120.22;;;70.60;;
37485;SDS011;23341;50.296;18.960;2023-10-19T17:10:40;185.43;;;102.30;;
37485;SDS011;23341;50.296;18.960;2023-10-19T17:15:45;128.00;;;72.47;;
37485;SDS011;23341;50.296;18.960;2023-10-19T17:20:50;150.02;;;77.68;;
37485;SDS011;23341;50.296;18.960;2023-10-19T17:25:54;147.75;;;78.80;;
37485;SDS011;23341;50.296;18.960;2023-10-19T17:31:01;253.30;;;120.78;;
37485;SDS011;23341;50.296;18.960;2023-10-19T17:36:05;131.00;;;73.43;;
37485;SDS011;23341;50.296;18.960;2023-10-19T17:41:10;141.32;;;79.20;;
37485;SDS011;23341;50.296;18.960;2023-10-19T17:46:16;130.07;;;78.25;;
37485;SDS011;23341;50.296;18.960;2023-10-19T17:51:21;99.53;;;55.45;;
37485;SDS011;23341;50.296;18.960;2023-10-19T17:56:25;101.10;;;60.65;;
37485;SDS011;23341;50.296;18.960;2023-10-19T18:01:30;103.35;;;62.40;;
37485;SDS011;23341;50.296;18.960;2023-10-19T18:06:35;106.55;;;63.83;;
37485;SDS011;23341;50.296;18.960;2023-10-19T18:11:39;92.75;;;59.60;;
37485;SDS011;23341;50.296;18.960;2023-10-19T18:16:45;90.28;;;53.20;;
37485;SDS011;23341;50.296;18.960;2023-10-19T18:21:50;83.68;;;52.83;;
37485;SDS011;23341;50.296;18.960;2023-10-19T18:26:57;95.53;;;56.45;;
37485;SDS011;23341;50.296;18.960;2023-10-19T18:32:03;93.10;;;52.42;;
37485;SDS011;23341;50.296;18.960;2023-10-19T18:37:07;83.50;;;51.45;;
37485;SDS011;23341;50.296;18.960;2023-10-19T18:42:12;76.10;;;46.65;;
37485;SDS011;23341;50.296;18.960;2023-10-19T18:47:18;75.72;;;48.65;;
37485;SDS011;23341;50.296;18.960;2023-10-19T18:52:23;79.75;;;49.53;;
37485;SDS011;23341;50.296;18.960;2023-10-19T18:57:27;77.80;;;48.90;;
37485;SDS011;23341;50.296;18.960;2023-10-19T19:02:33;76.57;;;48.47;;
37485;SDS011;23341;50.296;18.960;2023-10-19T19:07:37;80.88;;;49.70;;
37485;SDS011;23341;50.296;18.960;2023-10-19T19:12:41;80.72;;;50.47;;
37485;SDS011;23341;50.296;18.960;2023-10-19T19:17:47;94.50;;;56.80;;
37485;SDS011;23341;50.296;18.960;2023-10-19T19:22:52;89.20;;;55.40;;
37485;SDS011;23341;50.296;18.960;2023-10-19T19:27:56;89.75;;;55.47;;
37485;SDS011;23341;50.296;18.960;2023-10-19T19:33:02;93.28;;;58.08;;
37485;SDS011;23341;50.296;18.960;2023-10-19T19:38:08;93.95;;;56.78;;
37485;SDS011;23341;50.296;18.960;2023-10-19T19:43:14;94.03;;;58.15;;
37485;SDS011;23341;50.296;18.960;2023-10-19T19:48:22;93.80;;;58.00;;
37485;SDS011;23341;50.296;18.960;2023-10-19T19:53:27;95.88;;;58.50;;
37485;SDS011;23341;50.296;18.960;2023-10-19T19:58:33;96.28;;;59.85;;
37485;SDS011;23341;50.296;18.960;2023-10-19T20:03:39;106.28;;;66.80;;
37485;SDS011;23341;50.296;18.960;2023-10-19T20:08:43;101.45;;;61.83;;
37485;SDS011;23341;50.296;18.960;2023-10-19T20:13:48;102.18;;;59.85;;
37485;SDS011;23341;50.296;18.960;2023-10-19T20:18:53;97.28;;;61.85;;
37485;SDS011;23341;50.296;18.960;2023-10-19T20:23:59;98.15;;;62.65;;
37485;SDS011;23341;50.296;18.960;2023-10-19T20:29:05;98.90;;;65.82;;
37485;SDS011;23341;50.296;18.960;2023-10-19T20:34:11;102.15;;;61.38;;
37485;SDS011;23341;50.296;18.960;2023-10-19T20:44:25;93.22;;;56.58;;
37485;SDS011;23341;50.296;18.960;2023-10-19T20:49:34;90.22;;;57.03;;
37485;SDS011;23341;50.296;18.960;2023-10-19T20:54:39;90.60;;;58.60;;
37485;SDS011;23341;50.296;18.960;2023-10-19T20:59:43;96.85;;;59.42;;
37485;SDS011;23341;50.296;18.960;2023-10-19T21:04:49;94.03;;;60.45;;
37485;SDS011;23341;50.296;18.960;2023-10-19T21:09:53;147.77;;;78.65;;
37485;SDS011;23341;50.296;18.960;2023-10-19T21:14:58;129.55;;;73.72;;
37485;SDS011;23341;50.296;18.960;2023-10-19T21:20:04;96.28;;;60.00;;
37485;SDS011;23341;50.296;18.960;2023-10-19T21:25:10;91.45;;;56.50;;
37485;SDS011;23341;50.296;18.960;2023-10-19T21:30:16;94.80;;;59.95;;
37485;SDS011;23341;50.296;18.960;2023-10-19T21:35:22;90.60;;;56.33;;
37485;SDS011;23341;50.296;18.960;2023-10-19T21:40:28;116.05;;;66.25;;
37485;SDS011;23341;50.296;18.960;2023-10-19T21:45:33;97.57;;;61.17;;
37485;SDS011;23341;50.296;18.960;2023-10-19T21:50:40;207.35;;;102.72;;
37485;SDS011;23341;50.296;18.960;2023-10-19T21:55:44;90.13;;;55.92;;
37485;SDS011;23341;50.296;18.960;2023-10-19T22:00:48;98.45;;;58.33;;
37485;SDS011;23341;50.296;18.960;2023-10-19T22:06:03;90.85;;;56.97;;
37485;SDS011;23341;50.296;18.960;2023-10-19T22:11:08;95.03;;;55.60;;
37485;SDS011;23341;50.296;18.960;2023-10-19T22:16:12;77.57;;;51.10;;
37485;SDS011;23341;50.296;18.960;2023-10-19T22:21:18;79.97;;;49.42;;
37485;SDS011;23341;50.296;18.960;2023-10-19T22:26:22;77.55;;;50.85;;
37485;SDS011;23341;50.296;18.960;2023-10-19T22:31:27;77.35;;;49.05;;
37485;SDS011;23341;50.296;18.960;2023-10-19T22:36:33;165.65;;;95.55;;
37485;SDS011;23341;50.296;18.960;2023-10-19T22:41:39;84.95;;;53.80;;
37485;SDS011;23341;50.296;18.960;2023-10-19T22:46:44;82.07;;;51.85;;
37485;SDS011;23341;50.296;18.960;2023-10-19T22:51:49;82.10;;;51.50;;
37485;SDS011;23341;50.296;18.960;2023-10-19T22:56:54;76.63;;;48.92;;
37485;SDS011;23341;50.296;18.960;2023-10-19T23:01:58;104.20;;;66.63;;
37485;SDS011;23341;50.296;18.960;2023-10-19T23:07:04;88.82;;;56.05;;
37485;SDS011;23341;50.296;18.960;2023-10-19T23:12:10;96.60;;;61.47;;
37485;SDS011;23341;50.296;18.960;2023-10-19T23:17:17;93.07;;;62.25;;
37485;SDS011;23341;50.296;18.960;2023-10-19T23:22:26;94.20;;;65.57;;
37485;SDS011;23341;50.296;18.960;2023-10-19T23:27:31;93.15;;;64.05;;
37485;SDS011;23341;50.296;18.960;2023-10-19T23:32:36;93.75;;;61.35;;
37485;SDS011;23341;50.296;18.960;2023-10-19T23:37:42;100.60;;;62.22;;
37485;SDS011;23341;50.296;18.960;2023-10-19T23:42:47;93.85;;;58.72;;
37485;SDS011;23341;50.296;18.960;2023-10-19T23:47:51;84.38;;;53.33;;
37485;SDS011;23341;50.296;18.960;2023-10-19T23:52:57;83.20;;;58.03;;
37485;SDS011;23341;50.296;18.960;2023-10-19T23:58:02;88.70;;;55.05;;
